sensor_id;sensor_type;location;lat;lon;timestamp;pressure;altitude;pressure_sealevel;temperature;humidity
34374;BME280;20637;55.770;37.592;2022-09-01T00:02:23;99001.31;;;12.37;69.00
34374;BME280;20637;55.770;37.592;2022-09-01T00:04:52;98988.81;;;12.36;68.91
34374;BME280;20637;55.770;37.592;2022-09-01T00:07:26;98986.09;;;12.36;68.65
34374;BME280;20637;55.770;37.592;2022-09-01T00:09:54;98987.38;;;12.40;68.99
34374;BME280;20637;55.770;37.592;2022-09-01T00:12:20;98989.66;;;12.37;69.01
34374;BME280;20637;55.770;37.592;2022-09-01T00:14:47;98996.69;;;12.31;68.89
34374;BME280;20637;55.770;37.592;2022-09-01T00:17:13;98995.31;;;12.21;69.06
34374;BME280;20637;55.770;37.592;2022-09-01T00:19:39;98999.25;;;12.18;68.93
34374;BME280;20637;55.770;37.592;2022-09-01T00:22:06;98994.69;;;12.19;69.47
34374;BME280;20637;55.770;37.592;2022-09-01T00:24:32;98990.03;;;12.13;69.18
34374;BME280;20637;55.770;37.592;2022-09-01T00:26:57;99010.88;;;12.12;69.24
34374;BME280;20637;55.770;37.592;2022-09-01T00:29:23;99005.47;;;12.12;69.04
34374;BME280;20637;55.770;37.592;2022-09-01T00:31:50;98995.78;;;12.03;69.60
34374;BME280;20637;55.770;37.592;2022-09-01T00:34:16;99014.72;;;12.03;69.62
34374;BME280;20637;55.770;37.592;2022-09-01T00:36:42;99004.47;;;11.99;69.46
34374;BME280;20637;55.770;37.592;2022-09-01T00:39:08;98998.22;;;11.98;69.94
34374;BME280;20637;55.770;37.592;2022-09-01T00:41:37;99009.50;;;12.02;70.14
34374;BME280;20637;55.770;37.592;2022-09-01T00:44:07;98998.38;;;12.11;70.12
34374;BME280;20637;55.770;37.592;2022-09-01T00:46:36;99005.47;;;12.12;69.94
34374;BME280;20637;55.770;37.592;2022-09-01T00:49:20;99002.66;;;12.06;69.64
34374;BME280;20637;55.770;37.592;2022-09-01T00:51:50;98999.50;;;12.02;69.60
34374;BME280;20637;55.770;37.592;2022-09-01T00:54:28;99008.28;;;12.04;69.54
34374;BME280;20637;55.770;37.592;2022-09-01T00:56:55;99010.06;;;11.97;69.43
34374;BME280;20637;55.770;37.592;2022-09-01T00:59:22;99012.31;;;11.93;69.81
34374;BME280;20637;55.770;37.592;2022-09-01T01:01:48;99001.72;;;11.92;69.72
34374;BME280;20637;55.770;37.592;2022-09-01T01:04:14;99010.22;;;11.89;69.69
34374;BME280;20637;55.770;37.592;2022-09-01T01:06:45;99010.13;;;11.82;69.94
34374;BME280;20637;55.770;37.592;2022-09-01T01:09:19;99012.59;;;11.77;70.25
34374;BME280;20637;55.770;37.592;2022-09-01T01:11:46;99003.81;;;11.75;69.85
34374;BME280;20637;55.770;37.592;2022-09-01T01:14:15;99004.25;;;11.79;70.33
34374;BME280;20637;55.770;37.592;2022-09-01T01:16:44;99013.22;;;11.79;69.96
34374;BME280;20637;55.770;37.592;2022-09-01T01:19:23;99006.72;;;11.74;70.07
34374;BME280;20637;55.770;37.592;2022-09-01T01:22:21;99004.44;;;11.63;70.00
34374;BME280;20637;55.770;37.592;2022-09-01T01:25:09;99000.19;;;11.54;70.40
34374;BME280;20637;55.770;37.592;2022-09-01T01:27:38;99006.00;;;11.51;70.50
34374;BME280;20637;55.770;37.592;2022-09-01T01:30:08;98994.78;;;11.54;70.50
34374;BME280;20637;55.770;37.592;2022-09-01T01:32:39;98990.41;;;11.53;70.42
34374;BME280;20637;55.770;37.592;2022-09-01T01:35:15;98997.50;;;11.54;70.55
34374;BME280;20637;55.770;37.592;2022-09-01T01:37:43;98992.94;;;11.54;70.39
34374;BME280;20637;55.770;37.592;2022-09-01T01:40:18;98992.72;;;11.56;70.65
34374;BME280;20637;55.770;37.592;2022-09-01T01:42:48;98996.00;;;11.51;70.34
34374;BME280;20637;55.770;37.592;2022-09-01T01:45:17;98987.63;;;11.46;70.48
34374;BME280;20637;55.770;37.592;2022-09-01T01:47:45;98991.75;;;11.42;70.40
34374;BME280;20637;55.770;37.592;2022-09-01T01:50:20;98999.19;;;11.40;70.63
34374;BME280;20637;55.770;37.592;2022-09-01T01:52:46;98998.44;;;11.46;70.94
34374;BME280;20637;55.770;37.592;2022-09-01T01:55:12;98993.88;;;11.46;70.43
34374;BME280;20637;55.770;37.592;2022-09-01T01:57:47;99002.44;;;11.50;70.36
34374;BME280;20637;55.770;37.592;2022-09-01T02:00:19;98996.00;;;11.51;70.64
34374;BME280;20637;55.770;37.592;2022-09-01T02:02:47;98994.13;;;11.52;70.50
34374;BME280;20637;55.770;37.592;2022-09-01T02:05:31;98998.44;;;11.46;70.58
34374;BME280;20637;55.770;37.592;2022-09-01T02:08:06;98998.16;;;11.41;70.29
34374;BME280;20637;55.770;37.592;2022-09-01T02:10:40;99002.94;;;11.39;70.43
34374;BME280;20637;55.770;37.592;2022-09-01T02:13:07;99006.66;;;11.38;70.56
34374;BME280;20637;55.770;37.592;2022-09-01T02:15:39;99007.84;;;11.35;70.68
34374;BME280;20637;55.770;37.592;2022-09-01T02:18:15;99002.00;;;11.32;70.21
34374;BME280;20637;55.770;37.592;2022-09-01T02:20:47;99002.75;;;11.26;70.87
34374;BME280;20637;55.770;37.592;2022-09-01T02:23:14;98999.78;;;11.21;70.86
34374;BME280;20637;55.770;37.592;2022-09-01T02:25:44;98998.47;;;11.17;71.06
34374;BME280;20637;55.770;37.592;2022-09-01T02:28:12;98999.22;;;11.11;70.72
34374;BME280;20637;55.770;37.592;2022-09-01T02:30:42;99002.94;;;11.10;70.98
34374;BME280;20637;55.770;37.592;2022-09-01T02:33:10;98994.38;;;11.06;71.02
34374;BME280;20637;55.770;37.592;2022-09-01T02:35:37;98998.47;;;11.02;71.17
34374;BME280;20637;55.770;37.592;2022-09-01T02:38:04;99007.13;;;10.97;71.42
34374;BME280;20637;55.770;37.592;2022-09-01T02:40:31;99007.69;;;10.93;71.70
34374;BME280;20637;55.770;37.592;2022-09-01T02:42:58;98999.97;;;10.90;71.48
34374;BME280;20637;55.770;37.592;2022-09-01T02:45:28;99008.19;;;10.96;71.57
34374;BME280;20637;55.770;37.592;2022-09-01T02:47:55;99009.09;;;11.04;71.76
34374;BME280;20637;55.770;37.592;2022-09-01T02:50:22;99000.53;;;11.00;71.74
34374;BME280;20637;55.770;37.592;2022-09-01T02:52:50;99009.84;;;10.97;71.51
34374;BME280;20637;55.770;37.592;2022-09-01T02:55:18;99009.19;;;10.95;71.75
34374;BME280;20637;55.770;37.592;2022-09-01T02:57:49;98999.88;;;10.98;71.74
34374;BME280;20637;55.770;37.592;2022-09-01T03:00:17;98999.69;;;10.99;71.91
34374;BME280;20637;55.770;37.592;2022-09-01T03:02:51;99001.34;;;11.00;71.26
34374;BME280;20637;55.770;37.592;2022-09-01T03:05:20;98995.78;;;11.02;71.78
34374;BME280;20637;55.770;37.592;2022-09-01T03:08:04;98984.97;;;11.02;71.20
34374;BME280;20637;55.770;37.592;2022-09-01T03:10:34;98989.53;;;11.02;70.96
34374;BME280;20637;55.770;37.592;2022-09-01T03:13:04;98991.38;;;11.01;71.06
34374;BME280;20637;55.770;37.592;2022-09-01T03:15:31;98983.50;;;10.99;70.85
34374;BME280;20637;55.770;37.592;2022-09-01T03:17:58;98999.31;;;11.03;70.67
34374;BME280;20637;55.770;37.592;2022-09-01T03:20:27;98993.81;;;11.11;70.83
34374;BME280;20637;55.770;37.592;2022-09-01T03:22:54;98995.75;;;11.17;70.85
34374;BME280;20637;55.770;37.592;2022-09-01T03:25:23;98997.91;;;11.21;70.73
34374;BME280;20637;55.770;37.592;2022-09-01T03:27:51;99007.78;;;11.29;70.40
34374;BME280;20637;55.770;37.592;2022-09-01T03:30:18;99000.91;;;11.26;70.56
34374;BME280;20637;55.770;37.592;2022-09-01T03:32:43;98997.19;;;11.27;70.51
34374;BME280;20637;55.770;37.592;2022-09-01T03:35:10;99002.00;;;11.32;70.23
34374;BME280;20637;55.770;37.592;2022-09-01T03:37:37;99003.69;;;11.33;70.06
34374;BME280;20637;55.770;37.592;2022-09-01T03:40:06;99003.03;;;11.31;70.16
34374;BME280;20637;55.770;37.592;2022-09-01T03:42:35;98998.19;;;11.26;69.91
34374;BME280;20637;55.770;37.592;2022-09-01T03:45:02;99000.34;;;11.31;70.06
34374;BME280;20637;55.770;37.592;2022-09-01T03:47:35;99006.84;;;11.36;69.67
34374;BME280;20637;55.770;37.592;2022-09-01T03:50:12;99008.13;;;11.40;69.61
34374;BME280;20637;55.770;37.592;2022-09-01T03:52:51;99006.72;;;11.44;69.23
34374;BME280;20637;55.770;37.592;2022-09-01T03:55:21;99005.25;;;11.42;69.13
34374;BME280;20637;55.770;37.592;2022-09-01T03:57:50;99010.38;;;11.37;68.95
34374;BME280;20637;55.770;37.592;2022-09-01T04:00:21;99008.91;;;11.34;68.86
34374;BME280;20637;55.770;37.592;2022-09-01T04:02:53;98997.19;;;11.27;68.55
34374;BME280;20637;55.770;37.592;2022-09-01T04:05:26;99010.69;;;11.27;68.46
34374;BME280;20637;55.770;37.592;2022-09-01T04:08:00;99005.75;;;11.31;68.58
34374;BME280;20637;55.770;37.592;2022-09-01T04:10:29;98999.56;;;11.37;68.66
34374;BME280;20637;55.770;37.592;2022-09-01T04:12:58;98994.00;;;11.38;68.29
34374;BME280;20637;55.770;37.592;2022-09-01T04:15:25;98999.19;;;11.40;68.00
34374;BME280;20637;55.770;37.592;2022-09-01T04:17:52;98996.22;;;11.50;67.86
34374;BME280;20637;55.770;37.592;2022-09-01T04:20:53;98998.97;;;11.56;67.31
34374;BME280;20637;55.770;37.592;2022-09-01T04:23:30;99000.00;;;11.55;67.14
34374;BME280;20637;55.770;37.592;2022-09-01T04:26:07;98989.84;;;11.57;66.78
34374;BME280;20637;55.770;37.592;2022-09-01T04:28:37;98992.72;;;11.56;66.52
34374;BME280;20637;55.770;37.592;2022-09-01T04:31:06;98993.41;;;11.58;65.92
34374;BME280;20637;55.770;37.592;2022-09-01T04:33:37;99000.66;;;11.57;65.36
34374;BME280;20637;55.770;37.592;2022-09-01T04:36:17;99002.13;;;11.60;65.21
34374;BME280;20637;55.770;37.592;2022-09-01T04:38:46;99006.53;;;11.61;65.11
34374;BME280;20637;55.770;37.592;2022-09-01T04:41:12;99006.00;;;11.51;65.35
34374;BME280;20637;55.770;37.592;2022-09-01T04:43:46;98998.91;;;11.50;65.27
34374;BME280;20637;55.770;37.592;2022-09-01T04:46:14;99003.94;;;11.53;65.34
34374;BME280;20637;55.770;37.592;2022-09-01T04:48:40;99006.63;;;11.53;64.98
34374;BME280;20637;55.770;37.592;2022-09-01T04:51:11;99015.50;;;11.46;65.28
34374;BME280;20637;55.770;37.592;2022-09-01T04:53:49;99008.13;;;11.40;65.28
34374;BME280;20637;55.770;37.592;2022-09-01T04:56:18;99003.56;;;11.41;64.92
34374;BME280;20637;55.770;37.592;2022-09-01T04:59:03;98998.44;;;11.46;64.57
34374;BME280;20637;55.770;37.592;2022-09-01T05:01:33;99006.91;;;11.58;64.59
34374;BME280;20637;55.770;37.592;2022-09-01T05:04:09;99012.00;;;11.67;63.94
34374;BME280;20637;55.770;37.592;2022-09-01T05:06:40;99020.31;;;11.66;63.42
34374;BME280;20637;55.770;37.592;2022-09-01T05:09:08;99013.50;;;11.70;63.15
34374;BME280;20637;55.770;37.592;2022-09-01T05:12:03;99008.81;;;11.78;62.50
34374;BME280;20637;55.770;37.592;2022-09-01T05:14:43;99018.50;;;11.87;61.87
34374;BME280;20637;55.770;37.592;2022-09-01T05:17:15;99014.84;;;11.95;61.66
34374;BME280;20637;55.770;37.592;2022-09-01T05:19:44;99014.44;;;11.98;61.46
34374;BME280;20637;55.770;37.592;2022-09-01T05:22:13;99005.81;;;11.88;61.07
34374;BME280;20637;55.770;37.592;2022-09-01T05:24:43;99010.41;;;11.87;61.03
34374;BME280;20637;55.770;37.592;2022-09-01T05:27:10;99020.66;;;11.92;60.92
34374;BME280;20637;55.770;37.592;2022-09-01T05:29:38;99015.97;;;11.86;60.52
34374;BME280;20637;55.770;37.592;2022-09-01T05:32:07;99014.56;;;11.90;60.77
34374;BME280;20637;55.770;37.592;2022-09-01T05:34:38;99022.50;;;11.91;60.30
34374;BME280;20637;55.770;37.592;2022-09-01T05:37:06;99011.50;;;11.93;60.27
34374;BME280;20637;55.770;37.592;2022-09-01T05:39:36;99009.25;;;11.97;59.79
34374;BME280;20637;55.770;37.592;2022-09-01T05:42:03;99017.25;;;12.05;60.32
34374;BME280;20637;55.770;37.592;2022-09-01T05:44:37;99021.94;;;12.17;60.25
34374;BME280;20637;55.770;37.592;2022-09-01T05:47:08;99019.53;;;12.29;59.99
34374;BME280;20637;55.770;37.592;2022-09-01T05:49:36;99022.13;;;12.37;59.40
34374;BME280;20637;55.770;37.592;2022-09-01T05:52:04;99008.63;;;12.43;60.00
34374;BME280;20637;55.770;37.592;2022-09-01T05:54:31;99018.56;;;12.36;59.12
34374;BME280;20637;55.770;37.592;2022-09-01T05:56:57;99019.94;;;12.26;58.92
34374;BME280;20637;55.770;37.592;2022-09-01T05:59:26;99018.03;;;12.20;59.56
34374;BME280;20637;55.770;37.592;2022-09-01T06:02:08;99024.00;;;12.15;59.11
34374;BME280;20637;55.770;37.592;2022-09-01T06:04:37;99013.06;;;12.23;59.47
34374;BME280;20637;55.770;37.592;2022-09-01T06:07:12;99018.13;;;12.33;58.47
34374;BME280;20637;55.770;37.592;2022-09-01T06:09:46;99011.31;;;12.37;57.84
34374;BME280;20637;55.770;37.592;2022-09-01T06:12:16;99004.94;;;12.51;58.21
34374;BME280;20637;55.770;37.592;2022-09-01T06:14:47;60176.38;;;-142.37;100.00
34374;BME280;20637;55.770;37.592;2022-09-01T06:17:16;60176.38;;;-142.37;100.00
34374;BME280;20637;55.770;37.592;2022-09-01T06:19:44;60176.38;;;-142.37;100.00
34374;BME280;20637;55.770;37.592;2022-09-01T06:22:10;60176.38;;;-142.37;100.00
34374;BME280;20637;55.770;37.592;2022-09-01T06:24:37;99008.84;;;12.98;56.30
34374;BME280;20637;55.770;37.592;2022-09-01T06:27:08;99007.13;;;12.90;55.83
34374;BME280;20637;55.770;37.592;2022-09-01T06:29:36;99008.88;;;12.70;56.56
34374;BME280;20637;55.770;37.592;2022-09-01T06:32:08;99011.28;;;12.58;56.24
34374;BME280;20637;55.770;37.592;2022-09-01T06:34:38;99017.03;;;12.49;56.57
34374;BME280;20637;55.770;37.592;2022-09-01T06:37:09;99000.47;;;12.37;56.62
34374;BME280;20637;55.770;37.592;2022-09-01T06:39:36;99010.91;;;12.40;56.53
34374;BME280;20637;55.770;37.592;2022-09-01T06:42:03;99007.88;;;12.50;57.32
34374;BME280;20637;55.770;37.592;2022-09-01T06:44:40;99003.53;;;12.55;57.00
34374;BME280;20637;55.770;37.592;2022-09-01T06:47:07;99015.06;;;12.64;56.72
34374;BME280;20637;55.770;37.592;2022-09-01T06:49:34;99020.91;;;12.67;56.74
34374;BME280;20637;55.770;37.592;2022-09-01T06:52:07;99017.19;;;12.68;56.91
34374;BME280;20637;55.770;37.592;2022-09-01T06:54:33;99021.81;;;12.74;56.37
34374;BME280;20637;55.770;37.592;2022-09-01T06:57:02;99020.16;;;12.73;56.34
34374;BME280;20637;55.770;37.592;2022-09-01T06:59:30;99023.03;;;12.72;56.45
34374;BME280;20637;55.770;37.592;2022-09-01T07:02:01;99026.78;;;12.71;56.93
34374;BME280;20637;55.770;37.592;2022-09-01T07:04:39;99024.28;;;12.69;56.96
34374;BME280;20637;55.770;37.592;2022-09-01T07:07:08;99027.13;;;12.61;57.29
34374;BME280;20637;55.770;37.592;2022-09-01T07:10:01;99036.09;;;12.40;58.33
34374;BME280;20637;55.770;37.592;2022-09-01T07:12:36;99031.59;;;12.26;58.87
34374;BME280;20637;55.770;37.592;2022-09-01T07:15:02;99034.50;;;12.25;59.47
34374;BME280;20637;55.770;37.592;2022-09-01T07:17:29;99041.84;;;12.31;59.59
34374;BME280;20637;55.770;37.592;2022-09-01T07:19:55;99033.59;;;12.39;59.02
34374;BME280;20637;55.770;37.592;2022-09-01T07:22:24;99047.00;;;12.47;59.10
34374;BME280;20637;55.770;37.592;2022-09-01T07:24:50;99036.19;;;12.47;58.36
34374;BME280;20637;55.770;37.592;2022-09-01T07:27:26;99038.22;;;12.45;58.27
34374;BME280;20637;55.770;37.592;2022-09-01T07:29:53;99034.91;;;12.43;58.27
34374;BME280;20637;55.770;37.592;2022-09-01T07:32:21;99035.66;;;12.37;58.51
34374;BME280;20637;55.770;37.592;2022-09-01T07:34:47;99036.06;;;12.34;58.97
34374;BME280;20637;55.770;37.592;2022-09-01T07:37:14;99032.69;;;12.32;58.85
34374;BME280;20637;55.770;37.592;2022-09-01T07:39:40;99041.84;;;12.31;59.44
34374;BME280;20637;55.770;37.592;2022-09-01T07:42:30;99042.31;;;12.34;59.15
34374;BME280;20637;55.770;37.592;2022-09-01T07:45:15;99044.03;;;12.42;59.09
34374;BME280;20637;55.770;37.592;2022-09-01T07:48:00;99047.97;;;12.39;59.72
34374;BME280;20637;55.770;37.592;2022-09-01T07:50:35;99039.91;;;12.46;59.43
34374;BME280;20637;55.770;37.592;2022-09-01T07:53:06;99054.22;;;12.61;59.02
34374;BME280;20637;55.770;37.592;2022-09-01T07:55:33;99047.16;;;12.67;58.89
34374;BME280;20637;55.770;37.592;2022-09-01T07:58:00;99043.81;;;12.65;58.64
34374;BME280;20637;55.770;37.592;2022-09-01T08:00:27;99046.72;;;12.63;58.38
34374;BME280;20637;55.770;37.592;2022-09-01T08:03:00;99043.56;;;12.60;58.26
34374;BME280;20637;55.770;37.592;2022-09-01T08:05:26;99049.56;;;12.55;57.89
34374;BME280;20637;55.770;37.592;2022-09-01T08:07:54;99041.00;;;12.52;58.42
34374;BME280;20637;55.770;37.592;2022-09-01T08:10:24;99037.44;;;12.51;57.95
34374;BME280;20637;55.770;37.592;2022-09-01T08:12:49;99049.09;;;12.52;58.30
34374;BME280;20637;55.770;37.592;2022-09-01T08:15:15;99043.66;;;12.45;58.61
34374;BME280;20637;55.770;37.592;2022-09-01T08:17:43;99044.94;;;12.49;58.71
34374;BME280;20637;55.770;37.592;2022-09-01T08:20:11;99040.41;;;12.56;58.71
34374;BME280;20637;55.770;37.592;2022-09-01T08:22:48;99039.25;;;12.65;58.23
34374;BME280;20637;55.770;37.592;2022-09-01T08:25:20;99043.03;;;12.71;57.91
34374;BME280;20637;55.770;37.592;2022-09-01T08:27:47;99037.81;;;12.69;57.82
34374;BME280;20637;55.770;37.592;2022-09-01T08:30:13;99051.59;;;12.74;57.90
34374;BME280;20637;55.770;37.592;2022-09-01T08:32:40;99048.00;;;12.67;57.73
34374;BME280;20637;55.770;37.592;2022-09-01T08:35:09;99050.47;;;12.62;57.41
34374;BME280;20637;55.770;37.592;2022-09-01T08:37:36;99054.91;;;12.49;57.12
34374;BME280;20637;55.770;37.592;2022-09-01T08:40:04;99047.38;;;12.44;57.57
34374;BME280;20637;55.770;37.592;2022-09-01T08:43:09;99061.03;;;12.36;57.89
34374;BME280;20637;55.770;37.592;2022-09-01T08:45:43;99062.28;;;12.33;57.78
34374;BME280;20637;55.770;37.592;2022-09-01T08:56:41;99052.16;;;12.91;55.74
34374;BME280;20637;55.770;37.592;2022-09-01T08:59:09;99055.81;;;13.05;55.01
34374;BME280;20637;55.770;37.592;2022-09-01T09:11:14;99063.69;;;13.00;55.14
34374;BME280;20637;55.770;37.592;2022-09-01T09:15:57;99061.19;;;13.32;54.89
34374;BME280;20637;55.770;37.592;2022-09-01T09:18:31;99064.25;;;13.51;54.98
34374;BME280;20637;55.770;37.592;2022-09-01T09:21:07;99056.13;;;13.57;54.00
34374;BME280;20637;55.770;37.592;2022-09-01T09:23:40;99067.44;;;13.67;53.60
34374;BME280;20637;55.770;37.592;2022-09-01T09:26:07;99066.91;;;13.85;52.96
34374;BME280;20637;55.770;37.592;2022-09-01T09:28:33;99063.00;;;14.01;52.74
34374;BME280;20637;55.770;37.592;2022-09-01T09:33:49;99083.16;;;13.78;51.52
34374;BME280;20637;55.770;37.592;2022-09-01T09:36:28;99071.22;;;13.66;51.46
34374;BME280;20637;55.770;37.592;2022-09-01T09:39:16;99076.00;;;13.71;51.21
34374;BME280;20637;55.770;37.592;2022-09-01T09:41:43;99080.63;;;13.70;51.74
34374;BME280;20637;55.770;37.592;2022-09-01T09:44:28;99078.78;;;13.84;50.66
34374;BME280;20637;55.770;37.592;2022-09-01T09:46:55;99081.25;;;13.79;50.56
34374;BME280;20637;55.770;37.592;2022-09-01T09:54:36;99078.72;;;13.71;51.63
34374;BME280;20637;55.770;37.592;2022-09-01T09:59:30;99095.63;;;13.66;51.04
34374;BME280;20637;55.770;37.592;2022-09-01T10:01:58;99098.09;;;13.68;51.59
34374;BME280;20637;55.770;37.592;2022-09-01T10:04:37;99088.91;;;13.62;51.67
34374;BME280;20637;55.770;37.592;2022-09-01T10:07:23;99112.41;;;13.49;52.05
34374;BME280;20637;55.770;37.592;2022-09-01T10:09:51;99102.38;;;13.43;52.34
34374;BME280;20637;55.770;37.592;2022-09-01T10:12:17;99104.25;;;13.49;52.03
34374;BME280;20637;55.770;37.592;2022-09-01T10:14:54;99096.00;;;13.63;52.23
34374;BME280;20637;55.770;37.592;2022-09-01T10:17:46;99092.94;;;13.73;50.71
34374;BME280;20637;55.770;37.592;2022-09-01T10:22:42;99099.97;;;13.61;50.80
34374;BME280;20637;55.770;37.592;2022-09-01T10:25:15;99101.81;;;13.60;50.93
34374;BME280;20637;55.770;37.592;2022-09-01T10:27:44;99104.53;;;13.60;51.01
34374;BME280;20637;55.770;37.592;2022-09-01T10:30:15;99105.81;;;13.64;50.73
34374;BME280;20637;55.770;37.592;2022-09-01T10:32:56;99098.59;;;13.78;51.10
34374;BME280;20637;55.770;37.592;2022-09-01T10:37:52;99113.00;;;13.78;50.73
34374;BME280;20637;55.770;37.592;2022-09-01T10:42:49;99108.50;;;13.58;50.82
34374;BME280;20637;55.770;37.592;2022-09-01T10:47:47;99113.19;;;13.77;51.20
34374;BME280;20637;55.770;37.592;2022-09-01T10:50:30;99117.19;;;13.81;51.19
34374;BME280;20637;55.770;37.592;2022-09-01T10:53:02;99112.19;;;13.91;51.22
34374;BME280;20637;55.770;37.592;2022-09-01T10:55:47;99112.28;;;14.04;51.05
34374;BME280;20637;55.770;37.592;2022-09-01T10:58:59;99110.00;;;14.14;50.62
34374;BME280;20637;55.770;37.592;2022-09-01T11:05:15;99118.59;;;14.24;50.50
34374;BME280;20637;55.770;37.592;2022-09-01T11:07:34;99105.41;;;14.08;50.56
34374;BME280;20637;55.770;37.592;2022-09-01T11:15:40;99110.66;;;14.23;50.17
34374;BME280;20637;55.770;37.592;2022-09-01T11:18:25;99120.44;;;14.17;49.52
34374;BME280;20637;55.770;37.592;2022-09-01T11:20:52;99116.44;;;14.07;49.63
34374;BME280;20637;55.770;37.592;2022-09-01T11:23:25;99107.34;;;14.34;50.42
34374;BME280;20637;55.770;37.592;2022-09-01T11:25:58;99114.53;;;14.61;49.78
34374;BME280;20637;55.770;37.592;2022-09-01T11:31:40;99110.97;;;14.48;49.12
34374;BME280;20637;55.770;37.592;2022-09-01T11:44:48;99102.41;;;14.44;48.73
34374;BME280;20637;55.770;37.592;2022-09-01T11:47:25;99099.47;;;14.52;49.04
34374;BME280;20637;55.770;37.592;2022-09-01T11:50:02;99094.06;;;14.59;48.74
34374;BME280;20637;55.770;37.592;2022-09-01T11:52:35;99093.41;;;14.44;48.79
34374;BME280;20637;55.770;37.592;2022-09-01T11:55:04;99087.94;;;14.37;48.87
34374;BME280;20637;55.770;37.592;2022-09-01T11:57:33;99084.00;;;14.40;48.93
34374;BME280;20637;55.770;37.592;2022-09-01T12:00:03;99093.63;;;14.49;48.70
34374;BME280;20637;55.770;37.592;2022-09-01T12:02:46;99091.97;;;14.54;48.26
34374;BME280;20637;55.770;37.592;2022-09-01T12:05:29;99079.63;;;14.45;48.16
34374;BME280;20637;55.770;37.592;2022-09-01T12:07:56;99082.94;;;14.41;48.15
34374;BME280;20637;55.770;37.592;2022-09-01T12:10:29;99082.75;;;14.42;48.60
34374;BME280;20637;55.770;37.592;2022-09-01T12:13:05;99079.19;;;14.48;48.41
34374;BME280;20637;55.770;37.592;2022-09-01T12:15:31;99084.00;;;14.53;47.96
34374;BME280;20637;55.770;37.592;2022-09-01T12:18:13;99076.94;;;14.65;47.79
34374;BME280;20637;55.770;37.592;2022-09-01T12:20:45;99058.75;;;14.72;47.42
34374;BME280;20637;55.770;37.592;2022-09-01T12:25:54;99075.69;;;15.07;46.14
34374;BME280;20637;55.770;37.592;2022-09-01T12:28:22;99078.34;;;15.33;45.60
34374;BME280;20637;55.770;37.592;2022-09-01T12:30:49;99083.59;;;15.21;45.02
34374;BME280;20637;55.770;37.592;2022-09-01T12:33:17;99079.44;;;14.99;45.36
34374;BME280;20637;55.770;37.592;2022-09-01T12:35:44;99078.19;;;14.95;45.31
34374;BME280;20637;55.770;37.592;2022-09-01T12:40:46;99073.38;;;15.10;45.52
34374;BME280;20637;55.770;37.592;2022-09-01T12:43:36;99061.03;;;15.08;44.89
34374;BME280;20637;55.770;37.592;2022-09-01T12:46:06;99070.47;;;14.86;44.75
34374;BME280;20637;55.770;37.592;2022-09-01T12:48:38;99060.00;;;14.76;45.17
34374;BME280;20637;55.770;37.592;2022-09-01T12:51:24;99070.69;;;14.71;45.25
34374;BME280;20637;55.770;37.592;2022-09-01T12:53:58;99071.31;;;14.93;45.68
34374;BME280;20637;55.770;37.592;2022-09-01T12:56:35;99071.69;;;15.03;44.67
34374;BME280;20637;55.770;37.592;2022-09-01T12:59:22;99073.63;;;14.83;44.82
34374;BME280;20637;55.770;37.592;2022-09-01T13:01:48;99065.88;;;14.66;44.72
34374;BME280;20637;55.770;37.592;2022-09-01T13:06:46;99063.13;;;14.79;45.17
34374;BME280;20637;55.770;37.592;2022-09-01T13:09:11;99055.00;;;14.93;45.33
34374;BME280;20637;55.770;37.592;2022-09-01T13:11:37;99067.56;;;14.94;44.70
34374;BME280;20637;55.770;37.592;2022-09-01T13:14:03;99063.56;;;14.90;44.63
34374;BME280;20637;55.770;37.592;2022-09-01T13:16:29;99059.19;;;14.89;44.54
34374;BME280;20637;55.770;37.592;2022-09-01T13:18:55;99060.44;;;14.86;44.58
34374;BME280;20637;55.770;37.592;2022-09-01T13:21:21;99059.19;;;14.89;44.57
34374;BME280;20637;55.770;37.592;2022-09-01T13:23:47;99046.00;;;15.12;44.94
34374;BME280;20637;55.770;37.592;2022-09-01T13:26:14;99049.94;;;15.29;44.46
34374;BME280;20637;55.770;37.592;2022-09-01T13:28:39;99049.09;;;15.29;44.37
34374;BME280;20637;55.770;37.592;2022-09-01T13:31:05;99042.84;;;15.15;43.89
34374;BME280;20637;55.770;37.592;2022-09-01T13:33:33;99045.19;;;14.98;44.41
34374;BME280;20637;55.770;37.592;2022-09-01T13:35:59;99048.09;;;14.97;44.43
34374;BME280;20637;55.770;37.592;2022-09-01T13:38:25;99044.53;;;14.96;44.25
34374;BME280;20637;55.770;37.592;2022-09-01T13:40:51;99047.69;;;14.87;44.38
34374;BME280;20637;55.770;37.592;2022-09-01T13:43:20;99052.69;;;14.83;44.56
34374;BME280;20637;55.770;37.592;2022-09-01T13:45:46;99059.59;;;14.92;44.97
34374;BME280;20637;55.770;37.592;2022-09-01T13:48:13;99047.06;;;14.98;44.71
34374;BME280;20637;55.770;37.592;2022-09-01T13:50:40;99043.06;;;15.00;44.82
34374;BME280;20637;55.770;37.592;2022-09-01T13:53:06;99043.28;;;14.99;44.62
34374;BME280;20637;55.770;37.592;2022-09-01T13:55:36;99046.03;;;14.86;44.88
34374;BME280;20637;55.770;37.592;2022-09-01T13:58:03;99049.97;;;14.76;45.40
34374;BME280;20637;55.770;37.592;2022-09-01T14:00:32;99051.22;;;14.67;45.58
34374;BME280;20637;55.770;37.592;2022-09-01T14:03:02;99046.03;;;14.66;46.40
34374;BME280;20637;55.770;37.592;2022-09-01T14:05:31;99053.09;;;14.60;47.32
34374;BME280;20637;55.770;37.592;2022-09-01T14:07:58;99043.50;;;14.58;47.28
34374;BME280;20637;55.770;37.592;2022-09-01T14:10:25;99051.22;;;14.61;46.63
34374;BME280;20637;55.770;37.592;2022-09-01T14:12:51;99041.00;;;14.63;47.04
34374;BME280;20637;55.770;37.592;2022-09-01T14:15:18;99042.47;;;14.78;46.29
34374;BME280;20637;55.770;37.592;2022-09-01T14:17:47;99045.81;;;14.81;46.24
34374;BME280;20637;55.770;37.592;2022-09-01T14:20:22;99051.25;;;14.94;46.54
34374;BME280;20637;55.770;37.592;2022-09-01T14:22:49;99044.75;;;14.95;46.63